sensor_id;sensor_type;location;lat;lon;timestamp;P1;durP1;ratioP1;P2;durP2;ratioP2
13263;SDS011;6700;51.988;7.646;2023-05-10T00:01:51;3.43;;;3.17;;
13263;SDS011;6700;51.988;7.646;2023-05-10T00:04:18;4.27;;;3.50;;
13263;SDS011;6700;51.988;7.646;2023-05-10T00:06:45;3.93;;;3.53;;
13263;SDS011;6700;51.988;7.646;2023-05-10T00:09:13;3.83;;;3.43;;
13263;SDS011;6700;51.988;7.646;2023-05-10T00:11:40;3.70;;;3.40;;
13263;SDS011;6700;51.988;7.646;2023-05-10T00:14:08;3.93;;;3.63;;
13263;SDS011;6700;51.988;7.646;2023-05-10T00:16:35;4.13;;;3.73;;
13263;SDS011;6700;51.988;7.646;2023-05-10T00:19:02;4.30;;;4.00;;
13263;SDS011;6700;51.988;7.646;2023-05-10T00:21:29;4.73;;;4.33;;
13263;SDS011;6700;51.988;7.646;2023-05-10T00:23:57;4.60;;;4.13;;
13263;SDS011;6700;51.988;7.646;2023-05-10T00:26:24;4.70;;;4.30;;
13263;SDS011;6700;51.988;7.646;2023-05-10T00:28:52;4.70;;;4.33;;
13263;SDS011;6700;51.988;7.646;2023-05-10T00:31:19;9.37;;;4.80;;
13263;SDS011;6700;51.988;7.646;2023-05-10T00:33:46;6.53;;;4.77;;
13263;SDS011;6700;51.988;7.646;2023-05-10T00:36:13;5.17;;;4.40;;
13263;SDS011;6700;51.988;7.646;2023-05-10T00:38:41;6.80;;;5.20;;
13263;SDS011;6700;51.988;7.646;2023-05-10T00:41:08;6.43;;;5.30;;
13263;SDS011;6700;51.988;7.646;2023-05-10T00:43:35;5.47;;;4.93;;
13263;SDS011;6700;51.988;7.646;2023-05-10T00:46:03;6.10;;;5.50;;
13263;SDS011;6700;51.988;7.646;2023-05-10T00:48:30;7.13;;;5.50;;
13263;SDS011;6700;51.988;7.646;2023-05-10T00:50:58;6.37;;;5.87;;
13263;SDS011;6700;51.988;7.646;2023-05-10T00:53:25;5.87;;;5.37;;
13263;SDS011;6700;51.988;7.646;2023-05-10T00:55:53;6.83;;;5.93;;
13263;SDS011;6700;51.988;7.646;2023-05-10T00:58:20;5.93;;;5.43;;
13263;SDS011;6700;51.988;7.646;2023-05-10T01:00:49;6.23;;;5.63;;
13263;SDS011;6700;51.988;7.646;2023-05-10T01:03:17;6.10;;;5.60;;
13263;SDS011;6700;51.988;7.646;2023-05-10T01:05:44;6.10;;;5.60;;
13263;SDS011;6700;51.988;7.646;2023-05-10T01:08:11;5.33;;;4.93;;
13263;SDS011;6700;51.988;7.646;2023-05-10T01:10:38;6.17;;;5.67;;
13263;SDS011;6700;51.988;7.646;2023-05-10T01:13:06;6.37;;;5.87;;
13263;SDS011;6700;51.988;7.646;2023-05-10T01:15:33;6.17;;;5.57;;
13263;SDS011;6700;51.988;7.646;2023-05-10T01:18:01;7.13;;;6.43;;
13263;SDS011;6700;51.988;7.646;2023-05-10T01:20:32;5.60;;;5.10;;
13263;SDS011;6700;51.988;7.646;2023-05-10T01:23:10;5.80;;;5.30;;
13263;SDS011;6700;51.988;7.646;2023-05-10T01:28:14;5.60;;;5.10;;
13263;SDS011;6700;51.988;7.646;2023-05-10T01:35:51;4.77;;;4.37;;
13263;SDS011;6700;51.988;7.646;2023-05-10T01:38:27;5.13;;;4.60;;
13263;SDS011;6700;51.988;7.646;2023-05-10T01:43:25;3.43;;;3.13;;
13263;SDS011;6700;51.988;7.646;2023-05-10T01:48:23;3.30;;;3.00;;
13263;SDS011;6700;51.988;7.646;2023-05-10T01:50:51;3.07;;;2.43;;
13263;SDS011;6700;51.988;7.646;2023-05-10T01:53:19;3.57;;;2.50;;
13263;SDS011;6700;51.988;7.646;2023-05-10T01:55:48;2.63;;;2.43;;
13263;SDS011;6700;51.988;7.646;2023-05-10T01:58:21;2.50;;;2.30;;
13263;SDS011;6700;51.988;7.646;2023-05-10T02:00:49;2.63;;;2.03;;
13263;SDS011;6700;51.988;7.646;2023-05-10T02:03:18;5.30;;;2.23;;
13263;SDS011;6700;51.988;7.646;2023-05-10T02:05:48;2.80;;;2.60;;
13263;SDS011;6700;51.988;7.646;2023-05-10T02:08:15;3.33;;;2.53;;
13263;SDS011;6700;51.988;7.646;2023-05-10T02:10:42;3.17;;;2.27;;
13263;SDS011;6700;51.988;7.646;2023-05-10T02:13:10;2.93;;;2.63;;
13263;SDS011;6700;51.988;7.646;2023-05-10T02:15:38;3.77;;;2.17;;
13263;SDS011;6700;51.988;7.646;2023-05-10T02:18:06;2.53;;;2.20;;
13263;SDS011;6700;51.988;7.646;2023-05-10T02:20:34;2.70;;;2.50;;
13263;SDS011;6700;51.988;7.646;2023-05-10T02:23:02;3.00;;;2.23;;
13263;SDS011;6700;51.988;7.646;2023-05-10T02:25:31;4.43;;;2.70;;
13263;SDS011;6700;51.988;7.646;2023-05-10T02:27:59;2.90;;;2.47;;
13263;SDS011;6700;51.988;7.646;2023-05-10T02:30:26;4.77;;;2.73;;
13263;SDS011;6700;51.988;7.646;2023-05-10T02:32:54;3.23;;;2.50;;
13263;SDS011;6700;51.988;7.646;2023-05-10T02:35:22;3.10;;;2.80;;
13263;SDS011;6700;51.988;7.646;2023-05-10T02:37:50;3.70;;;2.93;;
13263;SDS011;6700;51.988;7.646;2023-05-10T02:40:17;3.33;;;3.03;;
13263;SDS011;6700;51.988;7.646;2023-05-10T02:42:45;4.60;;;3.20;;
13263;SDS011;6700;51.988;7.646;2023-05-10T02:45:17;5.43;;;3.70;;
13263;SDS011;6700;51.988;7.646;2023-05-10T02:47:45;3.50;;;3.20;;
13263;SDS011;6700;51.988;7.646;2023-05-10T02:50:12;6.03;;;3.73;;
13263;SDS011;6700;51.988;7.646;2023-05-10T02:52:40;6.77;;;3.23;;
13263;SDS011;6700;51.988;7.646;2023-05-10T02:55:09;3.63;;;3.30;;
13263;SDS011;6700;51.988;7.646;2023-05-10T02:57:41;5.97;;;3.97;;
13263;SDS011;6700;51.988;7.646;2023-05-10T03:00:09;3.83;;;3.50;;
13263;SDS011;6700;51.988;7.646;2023-05-10T03:02:36;5.77;;;4.03;;
13263;SDS011;6700;51.988;7.646;2023-05-10T03:05:03;4.30;;;4.00;;
13263;SDS011;6700;51.988;7.646;2023-05-10T03:07:31;5.40;;;4.20;;
13263;SDS011;6700;51.988;7.646;2023-05-10T03:09:58;4.53;;;4.13;;
13263;SDS011;6700;51.988;7.646;2023-05-10T03:20:09;5.00;;;4.30;;
13263;SDS011;6700;51.988;7.646;2023-05-10T03:22:38;6.33;;;4.70;;
13263;SDS011;6700;51.988;7.646;2023-05-10T03:25:08;5.17;;;4.70;;
13263;SDS011;6700;51.988;7.646;2023-05-10T03:27:39;5.87;;;5.03;;
13263;SDS011;6700;51.988;7.646;2023-05-10T03:30:11;5.60;;;5.10;;
13263;SDS011;6700;51.988;7.646;2023-05-10T03:32:38;5.93;;;5.43;;
13263;SDS011;6700;51.988;7.646;2023-05-10T03:35:06;5.23;;;4.67;;
13263;SDS011;6700;51.988;7.646;2023-05-10T03:37:37;5.80;;;5.23;;
13263;SDS011;6700;51.988;7.646;2023-05-10T03:40:04;5.97;;;5.33;;
13263;SDS011;6700;51.988;7.646;2023-05-10T03:42:32;7.27;;;5.80;;
13263;SDS011;6700;51.988;7.646;2023-05-10T03:44:59;5.10;;;4.70;;
13263;SDS011;6700;51.988;7.646;2023-05-10T03:47:27;6.70;;;5.70;;
13263;SDS011;6700;51.988;7.646;2023-05-10T03:49:58;5.67;;;5.17;;
13263;SDS011;6700;51.988;7.646;2023-05-10T03:52:25;6.67;;;5.10;;
13263;SDS011;6700;51.988;7.646;2023-05-10T03:54:53;6.57;;;5.17;;
13263;SDS011;6700;51.988;7.646;2023-05-10T03:57:20;6.33;;;5.77;;
13263;SDS011;6700;51.988;7.646;2023-05-10T03:59:48;5.73;;;5.23;;
13263;SDS011;6700;51.988;7.646;2023-05-10T04:02:15;5.83;;;5.23;;
13263;SDS011;6700;51.988;7.646;2023-05-10T04:04:45;5.73;;;5.20;;
13263;SDS011;6700;51.988;7.646;2023-05-10T04:07:15;6.40;;;5.80;;
13263;SDS011;6700;51.988;7.646;2023-05-10T04:09:42;6.10;;;5.57;;
13263;SDS011;6700;51.988;7.646;2023-05-10T04:12:09;5.97;;;5.37;;
13263;SDS011;6700;51.988;7.646;2023-05-10T04:14:36;6.50;;;5.90;;
13263;SDS011;6700;51.988;7.646;2023-05-10T04:17:04;7.00;;;5.90;;
13263;SDS011;6700;51.988;7.646;2023-05-10T04:19:31;8.83;;;6.13;;
13263;SDS011;6700;51.988;7.646;2023-05-10T04:21:59;5.80;;;5.23;;
13263;SDS011;6700;51.988;7.646;2023-05-10T04:24:29;6.40;;;5.10;;
13263;SDS011;6700;51.988;7.646;2023-05-10T04:26:56;5.80;;;4.97;;
13263;SDS011;6700;51.988;7.646;2023-05-10T04:29:23;5.63;;;5.13;;
13263;SDS011;6700;51.988;7.646;2023-05-10T04:31:50;5.87;;;5.30;;
13263;SDS011;6700;51.988;7.646;2023-05-10T04:34:36;5.60;;;5.10;;
13263;SDS011;6700;51.988;7.646;2023-05-10T04:37:03;5.73;;;5.23;;
13263;SDS011;6700;51.988;7.646;2023-05-10T04:39:33;5.80;;;5.20;;
13263;SDS011;6700;51.988;7.646;2023-05-10T04:42:07;6.23;;;5.63;;
13263;SDS011;6700;51.988;7.646;2023-05-10T04:44:34;6.07;;;5.57;;
13263;SDS011;6700;51.988;7.646;2023-05-10T04:47:04;6.37;;;5.77;;
13263;SDS011;6700;51.988;7.646;2023-05-10T04:49:33;6.07;;;5.57;;
13263;SDS011;6700;51.988;7.646;2023-05-10T04:52:00;6.17;;;5.67;;
13263;SDS011;6700;51.988;7.646;2023-05-10T04:54:27;6.00;;;5.33;;
13263;SDS011;6700;51.988;7.646;2023-05-10T04:56:54;6.53;;;5.60;;
13263;SDS011;6700;51.988;7.646;2023-05-10T04:59:21;5.43;;;4.93;;
13263;SDS011;6700;51.988;7.646;2023-05-10T05:01:49;5.27;;;4.77;;
13263;SDS011;6700;51.988;7.646;2023-05-10T05:04:16;6.10;;;5.50;;
13263;SDS011;6700;51.988;7.646;2023-05-10T05:06:46;9.57;;;5.83;;
13263;SDS011;6700;51.988;7.646;2023-05-10T05:09:13;6.17;;;5.57;;
13263;SDS011;6700;51.988;7.646;2023-05-10T05:11:40;7.43;;;5.80;;
13263;SDS011;6700;51.988;7.646;2023-05-10T05:14:07;6.63;;;5.43;;
13263;SDS011;6700;51.988;7.646;2023-05-10T05:16:34;6.57;;;5.97;;
13263;SDS011;6700;51.988;7.646;2023-05-10T05:19:03;7.13;;;5.63;;
13263;SDS011;6700;51.988;7.646;2023-05-10T05:21:30;6.60;;;6.00;;
13263;SDS011;6700;51.988;7.646;2023-05-10T05:23:58;8.63;;;6.23;;
13263;SDS011;6700;51.988;7.646;2023-05-10T05:26:26;7.97;;;7.07;;
13263;SDS011;6700;51.988;7.646;2023-05-10T05:28:53;8.17;;;7.37;;
13263;SDS011;6700;51.988;7.646;2023-05-10T05:31:20;8.40;;;7.60;;
13263;SDS011;6700;51.988;7.646;2023-05-10T05:33:48;8.67;;;7.83;;
13263;SDS011;6700;51.988;7.646;2023-05-10T05:36:15;12.40;;;9.10;;
13263;SDS011;6700;51.988;7.646;2023-05-10T05:38:42;9.33;;;8.33;;
13263;SDS011;6700;51.988;7.646;2023-05-10T05:41:09;10.53;;;8.50;;
13263;SDS011;6700;51.988;7.646;2023-05-10T05:43:36;11.50;;;10.37;;
13263;SDS011;6700;51.988;7.646;2023-05-10T05:46:04;12.53;;;10.23;;
13263;SDS011;6700;51.988;7.646;2023-05-10T05:48:31;15.00;;;11.20;;
13263;SDS011;6700;51.988;7.646;2023-05-10T05:50:59;14.73;;;11.77;;
13263;SDS011;6700;51.988;7.646;2023-05-10T05:53:26;12.83;;;11.53;;
13263;SDS011;6700;51.988;7.646;2023-05-10T05:55:53;16.67;;;12.73;;
13263;SDS011;6700;51.988;7.646;2023-05-10T05:58:21;14.90;;;13.27;;
13263;SDS011;6700;51.988;7.646;2023-05-10T06:00:48;18.63;;;14.17;;
13263;SDS011;6700;51.988;7.646;2023-05-10T06:03:16;16.70;;;13.87;;
13263;SDS011;6700;51.988;7.646;2023-05-10T06:05:43;19.50;;;14.17;;
13263;SDS011;6700;51.988;7.646;2023-05-10T06:08:10;20.63;;;14.77;;
13263;SDS011;6700;51.988;7.646;2023-05-10T06:10:37;22.33;;;15.60;;
13263;SDS011;6700;51.988;7.646;2023-05-10T06:13:05;23.97;;;15.10;;
13263;SDS011;6700;51.988;7.646;2023-05-10T06:15:32;22.73;;;15.63;;
13263;SDS011;6700;51.988;7.646;2023-05-10T06:17:59;23.23;;;16.37;;
13263;SDS011;6700;51.988;7.646;2023-05-10T06:20:26;23.67;;;16.83;;
13263;SDS011;6700;51.988;7.646;2023-05-10T06:22:54;21.93;;;16.37;;
13263;SDS011;6700;51.988;7.646;2023-05-10T06:25:21;25.70;;;17.57;;
13263;SDS011;6700;51.988;7.646;2023-05-10T06:27:48;25.53;;;18.33;;
13263;SDS011;6700;51.988;7.646;2023-05-10T06:30:19;27.30;;;17.80;;
13263;SDS011;6700;51.988;7.646;2023-05-10T06:32:49;26.23;;;18.73;;
13263;SDS011;6700;51.988;7.646;2023-05-10T06:35:16;26.30;;;17.90;;
13263;SDS011;6700;51.988;7.646;2023-05-10T06:37:44;24.27;;;17.47;;
13263;SDS011;6700;51.988;7.646;2023-05-10T06:40:11;27.70;;;19.67;;
13263;SDS011;6700;51.988;7.646;2023-05-10T06:42:38;29.20;;;18.67;;
13263;SDS011;6700;51.988;7.646;2023-05-10T06:45:06;28.53;;;18.20;;
13263;SDS011;6700;51.988;7.646;2023-05-10T06:47:33;25.00;;;17.63;;
13263;SDS011;6700;51.988;7.646;2023-05-10T06:50:04;23.63;;;16.73;;
13263;SDS011;6700;51.988;7.646;2023-05-10T06:52:31;28.40;;;18.20;;
13263;SDS011;6700;51.988;7.646;2023-05-10T06:54:58;23.93;;;16.20;;
13263;SDS011;6700;51.988;7.646;2023-05-10T06:57:26;24.60;;;15.97;;
13263;SDS011;6700;51.988;7.646;2023-05-10T06:59:57;20.13;;;14.83;;
13263;SDS011;6700;51.988;7.646;2023-05-10T07:02:25;20.00;;;14.60;;
13263;SDS011;6700;51.988;7.646;2023-05-10T07:04:52;21.53;;;14.07;;
13263;SDS011;6700;51.988;7.646;2023-05-10T07:07:24;21.57;;;14.77;;
13263;SDS011;6700;51.988;7.646;2023-05-10T07:09:51;20.93;;;15.23;;
13263;SDS011;6700;51.988;7.646;2023-05-10T07:12:18;25.23;;;15.73;;
13263;SDS011;6700;51.988;7.646;2023-05-10T07:14:45;23.63;;;17.50;;
13263;SDS011;6700;51.988;7.646;2023-05-10T07:17:13;25.73;;;17.23;;
13263;SDS011;6700;51.988;7.646;2023-05-10T07:19:40;23.27;;;17.57;;
13263;SDS011;6700;51.988;7.646;2023-05-10T07:22:07;31.43;;;19.23;;
13263;SDS011;6700;51.988;7.646;2023-05-10T07:24:34;27.67;;;19.10;;
13263;SDS011;6700;51.988;7.646;2023-05-10T07:27:04;23.27;;;18.53;;
13263;SDS011;6700;51.988;7.646;2023-05-10T07:29:32;27.50;;;19.30;;
13263;SDS011;6700;51.988;7.646;2023-05-10T07:31:59;29.50;;;19.67;;
13263;SDS011;6700;51.988;7.646;2023-05-10T07:34:27;24.03;;;19.80;;
13263;SDS011;6700;51.988;7.646;2023-05-10T07:36:57;27.20;;;20.43;;
13263;SDS011;6700;51.988;7.646;2023-05-10T07:39:25;24.60;;;21.00;;
13263;SDS011;6700;51.988;7.646;2023-05-10T07:41:54;26.30;;;20.43;;
13263;SDS011;6700;51.988;7.646;2023-05-10T07:44:21;27.20;;;21.90;;
13263;SDS011;6700;51.988;7.646;2023-05-10T07:46:48;28.67;;;20.67;;
13263;SDS011;6700;51.988;7.646;2023-05-10T07:49:16;27.87;;;22.27;;
13263;SDS011;6700;51.988;7.646;2023-05-10T07:51:43;27.10;;;22.03;;
13263;SDS011;6700;51.988;7.646;2023-05-10T07:54:10;29.20;;;22.87;;
13263;SDS011;6700;51.988;7.646;2023-05-10T07:56:38;28.17;;;22.93;;
13263;SDS011;6700;51.988;7.646;2023-05-10T07:59:08;28.73;;;23.63;;
13263;SDS011;6700;51.988;7.646;2023-05-10T08:01:37;30.03;;;24.60;;
13263;SDS011;6700;51.988;7.646;2023-05-10T08:04:05;27.00;;;22.07;;
13263;SDS011;6700;51.988;7.646;2023-05-10T08:06:32;28.23;;;22.67;;
13263;SDS011;6700;51.988;7.646;2023-05-10T08:08:59;28.83;;;23.37;;
13263;SDS011;6700;51.988;7.646;2023-05-10T08:11:27;24.83;;;21.83;;
13263;SDS011;6700;51.988;7.646;2023-05-10T08:13:54;26.10;;;21.20;;
13263;SDS011;6700;51.988;7.646;2023-05-10T08:16:21;25.20;;;19.63;;
13263;SDS011;6700;51.988;7.646;2023-05-10T08:18:49;22.77;;;20.20;;
13263;SDS011;6700;51.988;7.646;2023-05-10T08:21:17;24.57;;;21.73;;
13263;SDS011;6700;51.988;7.646;2023-05-10T08:23:44;25.37;;;20.00;;
13263;SDS011;6700;51.988;7.646;2023-05-10T08:26:11;27.07;;;21.63;;
13263;SDS011;6700;51.988;7.646;2023-05-10T08:28:39;24.23;;;21.40;;
13263;SDS011;6700;51.988;7.646;2023-05-10T08:31:06;26.17;;;21.77;;
13263;SDS011;6700;51.988;7.646;2023-05-10T08:33:33;24.03;;;21.00;;
13263;SDS011;6700;51.988;7.646;2023-05-10T08:36:01;30.83;;;21.37;;
13263;SDS011;6700;51.988;7.646;2023-05-10T08:38:28;25.50;;;20.40;;
13263;SDS011;6700;51.988;7.646;2023-05-10T08:40:55;24.33;;;20.07;;
13263;SDS011;6700;51.988;7.646;2023-05-10T08:43:23;23.03;;;19.17;;
13263;SDS011;6700;51.988;7.646;2023-05-10T08:46:02;25.30;;;19.63;;
13263;SDS011;6700;51.988;7.646;2023-05-10T08:48:32;24.23;;;19.27;;
13263;SDS011;6700;51.988;7.646;2023-05-10T08:51:01;26.93;;;19.30;;
13263;SDS011;6700;51.988;7.646;2023-05-10T08:53:30;25.23;;;19.20;;
13263;SDS011;6700;51.988;7.646;2023-05-10T08:55:58;24.70;;;20.63;;
13263;SDS011;6700;51.988;7.646;2023-05-10T08:58:25;24.03;;;20.13;;
13263;SDS011;6700;51.988;7.646;2023-05-10T09:00:52;24.77;;;19.67;;
13263;SDS011;6700;51.988;7.646;2023-05-10T09:03:20;22.83;;;20.07;;
13263;SDS011;6700;51.988;7.646;2023-05-10T09:05:47;26.20;;;19.97;;
13263;SDS011;6700;51.988;7.646;2023-05-10T09:08:15;23.73;;;19.40;;
13263;SDS011;6700;51.988;7.646;2023-05-10T09:10:43;24.27;;;19.40;;
13263;SDS011;6700;51.988;7.646;2023-05-10T09:13:10;20.93;;;18.53;;
13263;SDS011;6700;51.988;7.646;2023-05-10T09:15:38;25.83;;;17.73;;
13263;SDS011;6700;51.988;7.646;2023-05-10T09:18:05;21.33;;;19.03;;
13263;SDS011;6700;51.988;7.646;2023-05-10T09:20:32;23.60;;;17.73;;
13263;SDS011;6700;51.988;7.646;2023-05-10T09:22:59;21.97;;;18.93;;
13263;SDS011;6700;51.988;7.646;2023-05-10T09:25:27;23.67;;;19.07;;
13263;SDS011;6700;51.988;7.646;2023-05-10T09:27:54;22.73;;;17.57;;
13263;SDS011;6700;51.988;7.646;2023-05-10T09:30:25;21.50;;;18.33;;
13263;SDS011;6700;51.988;7.646;2023-05-10T09:32:53;24.23;;;18.13;;
13263;SDS011;6700;51.988;7.646;2023-05-10T09:35:21;20.07;;;16.70;;
13263;SDS011;6700;51.988;7.646;2023-05-10T09:37:53;21.27;;;17.07;;
13263;SDS011;6700;51.988;7.646;2023-05-10T09:40:21;23.00;;;17.47;;
13263;SDS011;6700;51.988;7.646;2023-05-10T09:42:56;19.27;;;17.23;;
13263;SDS011;6700;51.988;7.646;2023-05-10T09:45:24;21.13;;;18.47;;
13263;SDS011;6700;51.988;7.646;2023-05-10T09:47:52;24.43;;;17.47;;
13263;SDS011;6700;51.988;7.646;2023-05-10T09:50:19;21.70;;;17.00;;
13263;SDS011;6700;51.988;7.646;2023-05-10T09:55:18;22.50;;;17.37;;
13263;SDS011;6700;51.988;7.646;2023-05-10T09:57:46;21.10;;;17.20;;
13263;SDS011;6700;51.988;7.646;2023-05-10T10:00:18;21.73;;;17.90;;
13263;SDS011;6700;51.988;7.646;2023-05-10T10:02:46;20.70;;;18.03;;
13263;SDS011;6700;51.988;7.646;2023-05-10T10:05:14;20.27;;;18.03;;
13263;SDS011;6700;51.988;7.646;2023-05-10T10:07:43;22.83;;;18.20;;
13263;SDS011;6700;51.988;7.646;2023-05-10T10:10:10;21.10;;;17.53;;
13263;SDS011;6700;51.988;7.646;2023-05-10T10:12:39;24.40;;;17.23;;
13263;SDS011;6700;51.988;7.646;2023-05-10T10:15:07;22.00;;;17.80;;
13263;SDS011;6700;51.988;7.646;2023-05-10T10:17:35;22.80;;;17.13;;
13263;SDS011;6700;51.988;7.646;2023-05-10T10:20:03;21.23;;;17.43;;
13263;SDS011;6700;51.988;7.646;2023-05-10T10:22:30;24.13;;;18.50;;
13263;SDS011;6700;51.988;7.646;2023-05-10T10:24:58;20.73;;;17.03;;
13263;SDS011;6700;51.988;7.646;2023-05-10T10:30:12;23.53;;;16.87;;
13263;SDS011;6700;51.988;7.646;2023-05-10T10:35:36;22.90;;;17.07;;
13263;SDS011;6700;51.988;7.646;2023-05-10T10:38:08;21.07;;;17.33;;
13263;SDS011;6700;51.988;7.646;2023-05-10T10:40:36;20.17;;;16.03;;
13263;SDS011;6700;51.988;7.646;2023-05-10T10:43:25;18.90;;;16.23;;
13263;SDS011;6700;51.988;7.646;2023-05-10T10:46:12;21.27;;;15.63;;
13263;SDS011;6700;51.988;7.646;2023-05-10T10:48:40;19.47;;;15.27;;
13263;SDS011;6700;51.988;7.646;2023-05-10T10:51:08;20.33;;;15.27;;
13263;SDS011;6700;51.988;7.646;2023-05-10T10:53:42;19.33;;;15.77;;
13263;SDS011;6700;51.988;7.646;2023-05-10T10:56:11;18.55;;;15.70;;
13263;SDS011;6700;51.988;7.646;2023-05-10T10:58:42;22.57;;;16.73;;
13263;SDS011;6700;51.988;7.646;2023-05-10T11:01:18;16.83;;;14.53;;
13263;SDS011;6700;51.988;7.646;2023-05-10T11:06:42;20.23;;;15.32;;
13263;SDS011;6700;51.988;7.646;2023-05-10T11:09:10;18.57;;;15.90;;
13263;SDS011;6700;51.988;7.646;2023-05-10T11:11:51;18.97;;;14.67;;
13263;SDS011;6700;51.988;7.646;2023-05-10T11:14:21;19.10;;;14.93;;
13263;SDS011;6700;51.988;7.646;2023-05-10T11:16:50;17.87;;;15.67;;
13263;SDS011;6700;51.988;7.646;2023-05-10T11:19:19;18.03;;;15.97;;
13263;SDS011;6700;51.988;7.646;2023-05-10T11:24:31;19.10;;;15.47;;
13263;SDS011;6700;51.988;7.646;2023-05-10T11:27:01;19.70;;;15.33;;
13263;SDS011;6700;51.988;7.646;2023-05-10T11:29:31;19.13;;;14.87;;
13263;SDS011;6700;51.988;7.646;2023-05-10T11:31:59;14.23;;;12.07;;
13263;SDS011;6700;51.988;7.646;2023-05-10T11:34:28;16.80;;;12.82;;
13263;SDS011;6700;51.988;7.646;2023-05-10T11:36:57;13.30;;;11.82;;
13263;SDS011;6700;51.988;7.646;2023-05-10T11:39:28;15.03;;;12.57;;
13263;SDS011;6700;51.988;7.646;2023-05-10T11:41:55;16.47;;;14.30;;
13263;SDS011;6700;51.988;7.646;2023-05-10T11:44:22;18.07;;;14.77;;
13263;SDS011;6700;51.988;7.646;2023-05-10T11:46:51;17.17;;;15.20;;
13263;SDS011;6700;51.988;7.646;2023-05-10T11:49:19;17.30;;;15.13;;
13263;SDS011;6700;51.988;7.646;2023-05-10T11:51:47;18.63;;;16.53;;
13263;SDS011;6700;51.988;7.646;2023-05-10T11:54:14;21.73;;;16.93;;
13263;SDS011;6700;51.988;7.646;2023-05-10T11:56:41;22.83;;;16.13;;
13263;SDS011;6700;51.988;7.646;2023-05-10T11:59:09;17.67;;;13.90;;
13263;SDS011;6700;51.988;7.646;2023-05-10T12:01:37;17.87;;;15.07;;
13263;SDS011;6700;51.988;7.646;2023-05-10T12:04:04;18.60;;;14.63;;
13263;SDS011;6700;51.988;7.646;2023-05-10T12:06:32;19.80;;;14.23;;
13263;SDS011;6700;51.988;7.646;2023-05-10T12:09:10;18.00;;;15.10;;
13263;SDS011;6700;51.988;7.646;2023-05-10T12:11:38;15.53;;;13.17;;
13263;SDS011;6700;51.988;7.646;2023-05-10T12:14:09;17.30;;;13.07;;
13263;SDS011;6700;51.988;7.646;2023-05-10T12:16:37;17.90;;;13.90;;
13263;SDS011;6700;51.988;7.646;2023-05-10T12:19:05;15.93;;;13.70;;
13263;SDS011;6700;51.988;7.646;2023-05-10T12:21:32;14.57;;;12.73;;
13263;SDS011;6700;51.988;7.646;2023-05-10T12:24:01;15.40;;;13.03;;
13263;SDS011;6700;51.988;7.646;2023-05-10T12:26:29;15.37;;;12.60;;
13263;SDS011;6700;51.988;7.646;2023-05-10T12:29:12;14.67;;;12.23;;
13263;SDS011;6700;51.988;7.646;2023-05-10T12:31:55;13.47;;;10.93;;
13263;SDS011;6700;51.988;7.646;2023-05-10T12:34:29;14.20;;;10.70;;
13263;SDS011;6700;51.988;7.646;2023-05-10T12:37:00;14.17;;;11.87;;
13263;SDS011;6700;51.988;7.646;2023-05-10T12:39:43;14.00;;;11.87;;
13263;SDS011;6700;51.988;7.646;2023-05-10T12:42:12;13.80;;;11.77;;
13263;SDS011;6700;51.988;7.646;2023-05-10T12:44:39;26.63;;;23.10;;
13263;SDS011;6700;51.988;7.646;2023-05-10T12:47:07;12.87;;;10.73;;
13263;SDS011;6700;51.988;7.646;2023-05-10T12:49:34;12.10;;;10.77;;
13263;SDS011;6700;51.988;7.646;2023-05-10T12:52:02;11.53;;;10.33;;
13263;SDS011;6700;51.988;7.646;2023-05-10T12:54:29;11.97;;;10.00;;
13263;SDS011;6700;51.988;7.646;2023-05-10T12:56:57;11.40;;;10.30;;
13263;SDS011;6700;51.988;7.646;2023-05-10T12:59:25;12.70;;;10.80;;
13263;SDS011;6700;51.988;7.646;2023-05-10T13:01:52;12.23;;;10.37;;
13263;SDS011;6700;51.988;7.646;2023-05-10T13:04:19;11.20;;;9.83;;
13263;SDS011;6700;51.988;7.646;2023-05-10T13:06:46;11.17;;;9.80;;
13263;SDS011;6700;51.988;7.646;2023-05-10T13:09:13;11.87;;;10.13;;
13263;SDS011;6700;51.988;7.646;2023-05-10T13:11:41;10.63;;;9.17;;
13263;SDS011;6700;51.988;7.646;2023-05-10T13:14:08;11.43;;;10.23;;
13263;SDS011;6700;51.988;7.646;2023-05-10T13:16:35;11.40;;;9.70;;
13263;SDS011;6700;51.988;7.646;2023-05-10T13:19:03;11.13;;;9.43;;
13263;SDS011;6700;51.988;7.646;2023-05-10T13:21:30;13.23;;;10.17;;
13263;SDS011;6700;51.988;7.646;2023-05-10T13:23:58;9.63;;;8.40;;
13263;SDS011;6700;51.988;7.646;2023-05-10T13:26:26;9.70;;;7.40;;
13263;SDS011;6700;51.988;7.646;2023-05-10T13:28:53;11.35;;;8.65;;
13263;SDS011;6700;51.988;7.646;2023-05-10T13:31:21;10.57;;;8.10;;
13263;SDS011;6700;51.988;7.646;2023-05-10T13:33:48;11.80;;;10.60;;
13263;SDS011;6700;51.988;7.646;2023-05-10T13:36:16;15.03;;;11.43;;
13263;SDS011;6700;51.988;7.646;2023-05-10T13:38:43;15.17;;;11.13;;
13263;SDS011;6700;51.988;7.646;2023-05-10T13:41:10;13.90;;;11.53;;
13263;SDS011;6700;51.988;7.646;2023-05-10T13:43:37;13.33;;;11.73;;
13263;SDS011;6700;51.988;7.646;2023-05-10T13:46:04;18.03;;;14.63;;
13263;SDS011;6700;51.988;7.646;2023-05-10T13:48:32;16.97;;;14.27;;
13263;SDS011;6700;51.988;7.646;2023-05-10T13:51:00;18.93;;;14.97;;
13263;SDS011;6700;51.988;7.646;2023-05-10T13:53:27;22.10;;;16.33;;
13263;SDS011;6700;51.988;7.646;2023-05-10T13:55:54;19.43;;;14.90;;
13263;SDS011;6700;51.988;7.646;2023-05-10T13:58:21;20.27;;;16.60;;
13263;SDS011;6700;51.988;7.646;2023-05-10T14:00:49;20.50;;;16.73;;
13263;SDS011;6700;51.988;7.646;2023-05-10T14:03:16;22.83;;;15.97;;
13263;SDS011;6700;51.988;7.646;2023-05-10T14:05:44;20.57;;;17.43;;
13263;SDS011;6700;51.988;7.646;2023-05-10T14:08:11;21.13;;;17.17;;
13263;SDS011;6700;51.988;7.646;2023-05-10T14:10:39;17.23;;;15.50;;
13263;SDS011;6700;51.988;7.646;2023-05-10T14:13:06;17.97;;;16.07;;
13263;SDS011;6700;51.988;7.646;2023-05-10T14:15:34;18.60;;;15.00;;
13263;SDS011;6700;51.988;7.646;2023-05-10T14:18:01;17.87;;;14.23;;
13263;SDS011;6700;51.988;7.646;2023-05-10T14:20:28;15.80;;;13.50;;
13263;SDS011;6700;51.988;7.646;2023-05-10T14:22:56;16.70;;;12.53;;
13263;SDS011;6700;51.988;7.646;2023-05-10T14:25:23;20.37;;;13.27;;
13263;SDS011;6700;51.988;7.646;2023-05-10T14:27:51;13.87;;;12.10;;
13263;SDS011;6700;51.988;7.646;2023-05-10T14:30:20;16.70;;;11.70;;
13263;SDS011;6700;51.988;7.646;2023-05-10T14:32:47;13.27;;;11.10;;
13263;SDS011;6700;51.988;7.646;2023-05-10T14:35:15;14.57;;;11.23;;
13263;SDS011;6700;51.988;7.646;2023-05-10T14:37:45;14.27;;;11.37;;
13263;SDS011;6700;51.988;7.646;2023-05-10T14:40:12;14.03;;;12.23;;
13263;SDS011;6700;51.988;7.646;2023-05-10T14:42:41;14.47;;;12.53;;
13263;SDS011;6700;51.988;7.646;2023-05-10T14:45:09;17.33;;;12.97;;
13263;SDS011;6700;51.988;7.646;2023-05-10T14:47:37;17.47;;;12.03;;
13263;SDS011;6700;51.988;7.646;2023-05-10T14:50:04;17.87;;;11.77;;
13263;SDS011;6700;51.988;7.646;2023-05-10T14:52:32;19.07;;;12.80;;
13263;SDS011;6700;51.988;7.646;2023-05-10T14:54:59;19.00;;;13.93;;
13263;SDS011;6700;51.988;7.646;2023-05-10T14:57:27;15.87;;;13.37;;
13263;SDS011;6700;51.988;7.646;2023-05-10T14:59:58;19.10;;;13.87;;
13263;SDS011;6700;51.988;7.646;2023-05-10T15:02:26;15.80;;;13.93;;
13263;SDS011;6700;51.988;7.646;2023-05-10T15:04:53;17.27;;;13.07;;
13263;SDS011;6700;51.988;7.646;2023-05-10T15:07:21;16.70;;;12.80;;
13263;SDS011;6700;51.988;7.646;2023-05-10T15:09:48;14.00;;;12.50;;
13263;SDS011;6700;51.988;7.646;2023-05-10T15:12:15;15.73;;;13.27;;
13263;SDS011;6700;51.988;7.646;2023-05-10T15:14:42;15.87;;;14.17;;
13263;SDS011;6700;51.988;7.646;2023-05-10T15:17:10;16.20;;;13.87;;
13263;SDS011;6700;51.988;7.646;2023-05-10T15:19:37;18.13;;;14.47;;
13263;SDS011;6700;51.988;7.646;2023-05-10T15:22:04;17.80;;;14.40;;
13263;SDS011;6700;51.988;7.646;2023-05-10T15:24:32;16.07;;;12.87;;